LKKVLKLN

Guest
Details From LKKV - Karlovy Vary
To LKLN - Plzen - Line
Flight Number -
Tags generated
Created
Modified
Stats Distance 35 nm / 64 km
Max Altitude 2,800 ft / 853 m
Waypoints 3
Social Downloads 0
Likes 0
Share VATSIM

Download

Looking for another format? Having issues loading an existing format? Contact us
Advertisement - Login to hide

Notes

Basic altitude profile: - Ascent Rate: 2500ft/min - Ascent Speed: 250kts - Cruise Altitude: 35000ft - Cruise Speed: 420kts - Descent Rate: 1500ft/min - Descent Speed: 250kts Options: - Use NATs: yes - Use PACOTS: yes - Use low airways: yes - Use high airways: no

Route

LKKV DONAD LKLN

ID Type Via Altitude Latitude Longitude Leg Dist Tot Dist Heading (true) Name
O LKKV APT - 0 ft / 0 m 50.20349˚ 12.91446˚ - 0 nm - Karlovy Vary
DONAD FIX - 2,800 ft / 853 m 50.08081˚ 13.00000˚ 8 nm 8 nm 156° / 156° -
O LKLN APT - 0 ft / 0 m 49.67523˚ 13.27448˚ 26 nm 34 nm 156° / 157° Plzen - Line

Altitude Profile

Advertisement - Login to hide

LKKV

Details ICAO LKKV (KLV)
Name Karlovy Vary
Region Czech Republic
Timezone Europe/Prague (UTC+1.0)
Stats Elevation 1,988 ft / 606 m (AMSL)
Location 50.203487° 12.914461°
Runways 2
Magnetic Variation 3.522° E

METAR

LKKV 161700Z 25006KT 210V280 9999 -SN FEW007 BKN045 M01/M02 Q1009 R29///////

Decode

TAF

TAF TAF LKKV 161100Z 1612/1718 25004KT 9999 BKN015 TEMPO 1612/1618 BKN005 TEMPO 1618/1718 4000 -SN BKN005 PROB30 TEMPO 1706/1718 1400 SHSN FEW002TCU BKN003

Decode

Departure Runways

ID Width Length Bearing (true) Bearing (mag) Surface Threshold Offset Overrun Length
11 98 ft / 30 m 7,049 ft / 2,149 m 113.09° 109.57° Asphalt 495 ft / 151 m 0 ft / 0 m
12 98 ft / 30 m 3,351 ft / 1,021 m 113.19° 109.67° Grass 0 ft / 0 m 0 ft / 0 m
29 98 ft / 30 m 7,049 ft / 2,149 m 293.11° 289.59° Asphalt 0 ft / 0 m 0 ft / 0 m
30 98 ft / 30 m 3,351 ft / 1,021 m 293.20° 289.68° Grass 0 ft / 0 m 0 ft / 0 m

LKLN

Details ICAO LKLN
Name Plzen - Line
Region Czech Republic
Timezone Europe/Prague (UTC+1.0)
Stats Elevation 1,187 ft / 362 m (AMSL)
Location 49.675230° 13.274484°
Runways 1
Magnetic Variation 3.588° E

METAR

LKLN 161700Z AUTO 26005KT 220V290 9999 -RA FEW030 OVC053 02/M01 Q1011

Decode

TAF

Not found

Destination Runways

ID Width Length Bearing (true) Bearing (mag) Surface Threshold Offset Overrun Length
06 197 ft / 60 m 4,755 ft / 1,449 m 58.19° 54.60° Concrete 0 ft / 0 m 2,477 ft / 755 m
24 197 ft / 60 m 4,755 ft / 1,449 m 238.21° 234.62° Concrete 0 ft / 0 m 784 ft / 239 m

Popular Alternatives